sensor_id;sensor_type;location;lat;lon;timestamp;P1;durP1;ratioP1;P2;durP2;ratioP2
24715;SDS011;12822;50.124;8.678;2022-12-18T00:00:55;81.63;;;27.67;;
24715;SDS011;12822;50.124;8.678;2022-12-18T00:03:21;73.43;;;24.90;;
24715;SDS011;12822;50.124;8.678;2022-12-18T00:05:48;71.95;;;26.30;;
24715;SDS011;12822;50.124;8.678;2022-12-18T00:08:14;70.97;;;24.05;;
24715;SDS011;12822;50.124;8.678;2022-12-18T00:10:40;65.40;;;24.42;;
24715;SDS011;12822;50.124;8.678;2022-12-18T00:13:06;66.15;;;22.77;;
24715;SDS011;12822;50.124;8.678;2022-12-18T00:15:34;68.95;;;24.45;;
24715;SDS011;12822;50.124;8.678;2022-12-18T00:18:00;63.55;;;23.73;;
24715;SDS011;12822;50.124;8.678;2022-12-18T00:20:26;68.88;;;22.58;;
24715;SDS011;12822;50.124;8.678;2022-12-18T00:22:52;59.72;;;21.83;;
24715;SDS011;12822;50.124;8.678;2022-12-18T00:25:18;66.68;;;22.80;;
24715;SDS011;12822;50.124;8.678;2022-12-18T00:27:44;65.35;;;23.27;;
24715;SDS011;12822;50.124;8.678;2022-12-18T00:30:10;70.43;;;23.98;;
24715;SDS011;12822;50.124;8.678;2022-12-18T00:32:36;66.70;;;23.05;;
24715;SDS011;12822;50.124;8.678;2022-12-18T00:35:03;58.55;;;21.58;;
24715;SDS011;12822;50.124;8.678;2022-12-18T00:37:29;61.25;;;21.95;;
24715;SDS011;12822;50.124;8.678;2022-12-18T00:39:55;66.30;;;21.92;;
24715;SDS011;12822;50.124;8.678;2022-12-18T00:42:20;63.20;;;22.05;;
24715;SDS011;12822;50.124;8.678;2022-12-18T00:45:05;67.20;;;23.33;;
24715;SDS011;12822;50.124;8.678;2022-12-18T00:47:31;60.22;;;22.77;;
24715;SDS011;12822;50.124;8.678;2022-12-18T00:49:57;65.35;;;23.50;;
24715;SDS011;12822;50.124;8.678;2022-12-18T00:52:23;63.38;;;22.58;;
24715;SDS011;12822;50.124;8.678;2022-12-18T00:54:49;59.67;;;22.30;;
24715;SDS011;12822;50.124;8.678;2022-12-18T00:57:15;68.13;;;23.70;;
24715;SDS011;12822;50.124;8.678;2022-12-18T00:59:41;57.22;;;21.42;;
24715;SDS011;12822;50.124;8.678;2022-12-18T01:02:07;59.38;;;21.52;;
24715;SDS011;12822;50.124;8.678;2022-12-18T01:04:33;60.22;;;21.98;;
24715;SDS011;12822;50.124;8.678;2022-12-18T01:06:59;58.63;;;22.42;;
24715;SDS011;12822;50.124;8.678;2022-12-18T01:09:25;60.10;;;21.13;;
24715;SDS011;12822;50.124;8.678;2022-12-18T01:11:51;51.28;;;19.45;;
24715;SDS011;12822;50.124;8.678;2022-12-18T01:14:17;57.30;;;21.92;;
24715;SDS011;12822;50.124;8.678;2022-12-18T01:16:43;58.53;;;21.52;;
24715;SDS011;12822;50.124;8.678;2022-12-18T01:19:09;52.55;;;19.63;;
24715;SDS011;12822;50.124;8.678;2022-12-18T01:21:35;61.67;;;20.60;;
24715;SDS011;12822;50.124;8.678;2022-12-18T01:24:01;54.53;;;20.48;;
24715;SDS011;12822;50.124;8.678;2022-12-18T01:26:27;55.95;;;21.67;;
24715;SDS011;12822;50.124;8.678;2022-12-18T01:28:55;54.33;;;20.02;;
24715;SDS011;12822;50.124;8.678;2022-12-18T01:31:22;56.53;;;21.52;;
24715;SDS011;12822;50.124;8.678;2022-12-18T01:33:49;58.22;;;20.33;;
24715;SDS011;12822;50.124;8.678;2022-12-18T01:36:16;58.35;;;22.08;;
24715;SDS011;12822;50.124;8.678;2022-12-18T01:38:43;59.42;;;22.35;;
24715;SDS011;12822;50.124;8.678;2022-12-18T01:41:09;59.65;;;22.25;;
24715;SDS011;12822;50.124;8.678;2022-12-18T01:43:46;63.92;;;22.00;;
24715;SDS011;12822;50.124;8.678;2022-12-18T01:46:13;65.18;;;21.58;;
24715;SDS011;12822;50.124;8.678;2022-12-18T01:48:39;62.47;;;23.27;;
24715;SDS011;12822;50.124;8.678;2022-12-18T01:51:06;61.42;;;22.90;;
24715;SDS011;12822;50.124;8.678;2022-12-18T01:53:33;72.55;;;23.27;;
24715;SDS011;12822;50.124;8.678;2022-12-18T01:55:59;62.28;;;22.10;;
24715;SDS011;12822;50.124;8.678;2022-12-18T01:58:35;66.80;;;22.63;;
24715;SDS011;12822;50.124;8.678;2022-12-18T02:01:01;66.80;;;22.77;;
24715;SDS011;12822;50.124;8.678;2022-12-18T02:03:27;65.70;;;22.50;;
24715;SDS011;12822;50.124;8.678;2022-12-18T02:06:07;70.45;;;23.52;;
24715;SDS011;12822;50.124;8.678;2022-12-18T02:08:43;74.80;;;25.17;;
24715;SDS011;12822;50.124;8.678;2022-12-18T02:13:44;59.22;;;22.85;;
24715;SDS011;12822;50.124;8.678;2022-12-18T02:18:38;70.85;;;23.10;;
24715;SDS011;12822;50.124;8.678;2022-12-18T02:23:39;67.07;;;24.73;;
24715;SDS011;12822;50.124;8.678;2022-12-18T02:26:12;73.72;;;25.02;;
24715;SDS011;12822;50.124;8.678;2022-12-18T02:28:41;73.30;;;23.58;;
24715;SDS011;12822;50.124;8.678;2022-12-18T02:31:09;66.57;;;23.58;;
24715;SDS011;12822;50.124;8.678;2022-12-18T02:33:37;68.15;;;24.35;;
24715;SDS011;12822;50.124;8.678;2022-12-18T02:36:03;72.13;;;24.80;;
24715;SDS011;12822;50.124;8.678;2022-12-18T02:38:30;69.47;;;24.00;;
24715;SDS011;12822;50.124;8.678;2022-12-18T02:40:56;66.68;;;23.88;;
24715;SDS011;12822;50.124;8.678;2022-12-18T02:43:23;74.68;;;25.80;;
24715;SDS011;12822;50.124;8.678;2022-12-18T02:45:50;70.97;;;25.20;;
24715;SDS011;12822;50.124;8.678;2022-12-18T02:48:18;69.47;;;23.52;;
24715;SDS011;12822;50.124;8.678;2022-12-18T02:51:08;77.10;;;25.65;;
24715;SDS011;12822;50.124;8.678;2022-12-18T02:53:56;68.70;;;23.70;;
24715;SDS011;12822;50.124;8.678;2022-12-18T02:56:26;70.90;;;24.33;;
24715;SDS011;12822;50.124;8.678;2022-12-18T02:59:28;71.33;;;24.57;;
24715;SDS011;12822;50.124;8.678;2022-12-18T03:04:25;72.05;;;23.50;;
24715;SDS011;12822;50.124;8.678;2022-12-18T03:06:53;70.30;;;23.88;;
24715;SDS011;12822;50.124;8.678;2022-12-18T03:09:31;67.78;;;22.85;;
24715;SDS011;12822;50.124;8.678;2022-12-18T03:12:00;69.10;;;23.25;;
24715;SDS011;12822;50.124;8.678;2022-12-18T03:14:46;68.75;;;24.67;;
24715;SDS011;12822;50.124;8.678;2022-12-18T03:17:15;71.13;;;23.77;;
24715;SDS011;12822;50.124;8.678;2022-12-18T03:19:43;74.53;;;24.83;;
24715;SDS011;12822;50.124;8.678;2022-12-18T03:22:09;65.00;;;22.08;;
24715;SDS011;12822;50.124;8.678;2022-12-18T03:24:35;65.18;;;22.40;;
24715;SDS011;12822;50.124;8.678;2022-12-18T03:27:05;67.90;;;22.02;;
24715;SDS011;12822;50.124;8.678;2022-12-18T03:32:28;65.60;;;22.83;;
24715;SDS011;12822;50.124;8.678;2022-12-18T03:34:56;63.10;;;22.23;;
24715;SDS011;12822;50.124;8.678;2022-12-18T03:37:23;63.40;;;21.80;;
24715;SDS011;12822;50.124;8.678;2022-12-18T03:39:49;69.82;;;21.33;;
24715;SDS011;12822;50.124;8.678;2022-12-18T03:42:26;57.20;;;21.95;;
24715;SDS011;12822;50.124;8.678;2022-12-18T03:44:56;55.67;;;21.17;;
24715;SDS011;12822;50.124;8.678;2022-12-18T03:47:58;62.88;;;20.80;;
24715;SDS011;12822;50.124;8.678;2022-12-18T03:50:20;56.13;;;21.33;;
24715;SDS011;12822;50.124;8.678;2022-12-18T03:55:19;55.80;;;19.95;;
24715;SDS011;12822;50.124;8.678;2022-12-18T03:57:47;62.72;;;22.05;;
24715;SDS011;12822;50.124;8.678;2022-12-18T04:00:14;55.05;;;20.80;;
24715;SDS011;12822;50.124;8.678;2022-12-18T04:02:42;64.07;;;22.77;;
24715;SDS011;12822;50.124;8.678;2022-12-18T04:05:09;64.38;;;22.48;;
24715;SDS011;12822;50.124;8.678;2022-12-18T04:07:36;66.18;;;21.60;;
24715;SDS011;12822;50.124;8.678;2022-12-18T04:10:03;55.08;;;21.45;;
24715;SDS011;12822;50.124;8.678;2022-12-18T04:12:31;64.47;;;22.73;;
24715;SDS011;12822;50.124;8.678;2022-12-18T04:14:57;61.38;;;22.80;;
24715;SDS011;12822;50.124;8.678;2022-12-18T04:17:23;62.70;;;21.92;;
24715;SDS011;12822;50.124;8.678;2022-12-18T04:19:50;56.35;;;20.48;;
24715;SDS011;12822;50.124;8.678;2022-12-18T04:22:16;60.85;;;20.85;;
24715;SDS011;12822;50.124;8.678;2022-12-18T04:24:42;55.63;;;21.40;;
24715;SDS011;12822;50.124;8.678;2022-12-18T04:27:08;60.10;;;22.45;;
24715;SDS011;12822;50.124;8.678;2022-12-18T04:29:34;60.17;;;21.23;;
24715;SDS011;12822;50.124;8.678;2022-12-18T04:32:00;58.75;;;22.25;;
24715;SDS011;12822;50.124;8.678;2022-12-18T04:34:26;60.05;;;21.98;;
24715;SDS011;12822;50.124;8.678;2022-12-18T04:36:52;69.20;;;23.75;;
24715;SDS011;12822;50.124;8.678;2022-12-18T04:39:18;62.92;;;22.02;;
24715;SDS011;12822;50.124;8.678;2022-12-18T04:41:44;66.60;;;22.73;;
24715;SDS011;12822;50.124;8.678;2022-12-18T04:44:10;55.10;;;20.77;;
24715;SDS011;12822;50.124;8.678;2022-12-18T04:46:36;58.70;;;21.95;;
24715;SDS011;12822;50.124;8.678;2022-12-18T04:49:02;59.10;;;21.95;;
24715;SDS011;12822;50.124;8.678;2022-12-18T04:51:28;63.15;;;23.42;;
24715;SDS011;12822;50.124;8.678;2022-12-18T04:53:54;58.80;;;20.95;;
24715;SDS011;12822;50.124;8.678;2022-12-18T04:56:20;62.10;;;21.15;;
24715;SDS011;12822;50.124;8.678;2022-12-18T04:58:46;54.88;;;20.92;;
24715;SDS011;12822;50.124;8.678;2022-12-18T05:01:13;52.95;;;21.08;;
24715;SDS011;12822;50.124;8.678;2022-12-18T05:03:39;61.17;;;22.10;;
24715;SDS011;12822;50.124;8.678;2022-12-18T05:06:05;50.30;;;20.70;;
24715;SDS011;12822;50.124;8.678;2022-12-18T05:08:31;61.97;;;21.75;;
24715;SDS011;12822;50.124;8.678;2022-12-18T05:11:02;58.58;;;22.15;;
24715;SDS011;12822;50.124;8.678;2022-12-18T05:13:28;57.05;;;21.65;;
24715;SDS011;12822;50.124;8.678;2022-12-18T05:15:54;56.33;;;20.63;;
24715;SDS011;12822;50.124;8.678;2022-12-18T05:18:21;61.90;;;22.67;;
24715;SDS011;12822;50.124;8.678;2022-12-18T05:20:48;60.40;;;23.20;;
24715;SDS011;12822;50.124;8.678;2022-12-18T05:23:14;57.10;;;20.52;;
24715;SDS011;12822;50.124;8.678;2022-12-18T05:25:40;59.28;;;22.73;;
24715;SDS011;12822;50.124;8.678;2022-12-18T05:28:06;54.83;;;20.08;;
24715;SDS011;12822;50.124;8.678;2022-12-18T05:30:33;60.72;;;22.55;;
24715;SDS011;12822;50.124;8.678;2022-12-18T05:32:59;63.58;;;23.00;;
24715;SDS011;12822;50.124;8.678;2022-12-18T05:35:25;57.22;;;21.40;;
24715;SDS011;12822;50.124;8.678;2022-12-18T05:37:51;52.20;;;20.50;;
24715;SDS011;12822;50.124;8.678;2022-12-18T05:40:17;59.65;;;21.35;;
24715;SDS011;12822;50.124;8.678;2022-12-18T05:42:43;53.17;;;20.80;;
24715;SDS011;12822;50.124;8.678;2022-12-18T05:45:09;59.95;;;21.13;;
24715;SDS011;12822;50.124;8.678;2022-12-18T05:47:35;54.78;;;20.98;;
24715;SDS011;12822;50.124;8.678;2022-12-18T05:50:01;52.50;;;21.35;;
24715;SDS011;12822;50.124;8.678;2022-12-18T05:52:27;51.13;;;20.83;;
24715;SDS011;12822;50.124;8.678;2022-12-18T05:54:53;51.92;;;20.23;;
24715;SDS011;12822;50.124;8.678;2022-12-18T05:57:19;56.85;;;20.90;;
24715;SDS011;12822;50.124;8.678;2022-12-18T05:59:45;51.05;;;20.90;;
24715;SDS011;12822;50.124;8.678;2022-12-18T06:02:11;59.45;;;21.80;;
24715;SDS011;12822;50.124;8.678;2022-12-18T06:04:37;58.08;;;21.17;;
24715;SDS011;12822;50.124;8.678;2022-12-18T06:07:03;60.08;;;21.42;;
24715;SDS011;12822;50.124;8.678;2022-12-18T06:09:29;61.08;;;21.45;;
24715;SDS011;12822;50.124;8.678;2022-12-18T06:11:55;55.67;;;21.20;;
24715;SDS011;12822;50.124;8.678;2022-12-18T06:14:21;63.85;;;23.35;;
24715;SDS011;12822;50.124;8.678;2022-12-18T06:16:47;58.63;;;21.77;;
24715;SDS011;12822;50.124;8.678;2022-12-18T06:19:14;62.90;;;21.35;;
24715;SDS011;12822;50.124;8.678;2022-12-18T06:21:40;57.03;;;22.35;;
24715;SDS011;12822;50.124;8.678;2022-12-18T06:24:06;55.95;;;22.42;;
24715;SDS011;12822;50.124;8.678;2022-12-18T06:26:32;57.50;;;21.17;;
24715;SDS011;12822;50.124;8.678;2022-12-18T06:28:58;62.45;;;21.77;;
24715;SDS011;12822;50.124;8.678;2022-12-18T06:31:25;58.70;;;21.50;;
24715;SDS011;12822;50.124;8.678;2022-12-18T06:33:51;59.60;;;21.13;;
24715;SDS011;12822;50.124;8.678;2022-12-18T06:36:17;61.35;;;22.23;;
24715;SDS011;12822;50.124;8.678;2022-12-18T06:38:44;52.67;;;20.35;;
24715;SDS011;12822;50.124;8.678;2022-12-18T06:41:11;60.95;;;22.58;;
24715;SDS011;12822;50.124;8.678;2022-12-18T06:43:38;53.92;;;20.65;;
24715;SDS011;12822;50.124;8.678;2022-12-18T06:46:04;62.13;;;21.67;;
24715;SDS011;12822;50.124;8.678;2022-12-18T06:48:31;58.65;;;22.23;;
24715;SDS011;12822;50.124;8.678;2022-12-18T06:50:57;56.30;;;21.40;;
24715;SDS011;12822;50.124;8.678;2022-12-18T06:53:23;54.30;;;21.17;;
24715;SDS011;12822;50.124;8.678;2022-12-18T06:55:49;55.50;;;21.65;;
24715;SDS011;12822;50.124;8.678;2022-12-18T06:58:15;61.83;;;22.05;;
24715;SDS011;12822;50.124;8.678;2022-12-18T07:00:41;55.45;;;21.58;;
24715;SDS011;12822;50.124;8.678;2022-12-18T07:03:07;61.42;;;21.83;;
24715;SDS011;12822;50.124;8.678;2022-12-18T07:05:33;52.28;;;21.00;;
24715;SDS011;12822;50.124;8.678;2022-12-18T07:07:59;55.20;;;20.88;;
24715;SDS011;12822;50.124;8.678;2022-12-18T07:10:25;54.15;;;20.58;;
24715;SDS011;12822;50.124;8.678;2022-12-18T07:12:51;59.85;;;20.80;;
24715;SDS011;12822;50.124;8.678;2022-12-18T07:15:17;55.00;;;21.08;;
24715;SDS011;12822;50.124;8.678;2022-12-18T07:17:43;54.75;;;21.27;;
24715;SDS011;12822;50.124;8.678;2022-12-18T07:20:09;58.20;;;21.75;;
24715;SDS011;12822;50.124;8.678;2022-12-18T07:22:35;59.80;;;21.02;;
24715;SDS011;12822;50.124;8.678;2022-12-18T07:25:01;50.95;;;19.85;;
24715;SDS011;12822;50.124;8.678;2022-12-18T07:27:27;47.85;;;20.52;;
24715;SDS011;12822;50.124;8.678;2022-12-18T07:29:53;57.30;;;20.50;;
24715;SDS011;12822;50.124;8.678;2022-12-18T07:32:19;53.17;;;20.90;;
24715;SDS011;12822;50.124;8.678;2022-12-18T07:34:45;51.78;;;20.55;;
24715;SDS011;12822;50.124;8.678;2022-12-18T07:37:11;49.83;;;19.67;;
24715;SDS011;12822;50.124;8.678;2022-12-18T07:39:37;56.05;;;20.88;;
24715;SDS011;12822;50.124;8.678;2022-12-18T07:42:03;60.88;;;21.83;;
24715;SDS011;12822;50.124;8.678;2022-12-18T07:44:48;61.13;;;21.35;;
24715;SDS011;12822;50.124;8.678;2022-12-18T07:47:14;54.42;;;20.30;;
24715;SDS011;12822;50.124;8.678;2022-12-18T07:49:40;59.83;;;21.95;;
24715;SDS011;12822;50.124;8.678;2022-12-18T07:52:06;55.78;;;21.52;;
24715;SDS011;12822;50.124;8.678;2022-12-18T07:54:33;51.67;;;20.75;;
24715;SDS011;12822;50.124;8.678;2022-12-18T07:56:59;53.83;;;21.90;;
24715;SDS011;12822;50.124;8.678;2022-12-18T07:59:25;53.60;;;20.85;;
24715;SDS011;12822;50.124;8.678;2022-12-18T08:01:51;55.40;;;22.15;;
24715;SDS011;12822;50.124;8.678;2022-12-18T08:04:17;58.85;;;21.52;;
24715;SDS011;12822;50.124;8.678;2022-12-18T08:06:43;52.78;;;20.85;;
24715;SDS011;12822;50.124;8.678;2022-12-18T08:09:09;61.33;;;21.02;;
24715;SDS011;12822;50.124;8.678;2022-12-18T08:11:35;49.78;;;22.42;;
24715;SDS011;12822;50.124;8.678;2022-12-18T08:14:01;52.83;;;20.73;;
24715;SDS011;12822;50.124;8.678;2022-12-18T08:16:27;56.38;;;21.55;;
24715;SDS011;12822;50.124;8.678;2022-12-18T08:18:55;57.75;;;20.83;;
24715;SDS011;12822;50.124;8.678;2022-12-18T08:21:25;50.22;;;20.40;;
24715;SDS011;12822;50.124;8.678;2022-12-18T08:23:52;51.33;;;19.48;;
24715;SDS011;12822;50.124;8.678;2022-12-18T08:26:19;48.65;;;19.65;;
24715;SDS011;12822;50.124;8.678;2022-12-18T08:28:45;46.13;;;18.75;;
24715;SDS011;12822;50.124;8.678;2022-12-18T08:31:11;44.72;;;19.45;;
24715;SDS011;12822;50.124;8.678;2022-12-18T08:33:38;42.42;;;19.63;;
24715;SDS011;12822;50.124;8.678;2022-12-18T08:36:04;43.53;;;19.40;;
24715;SDS011;12822;50.124;8.678;2022-12-18T08:38:33;46.42;;;19.88;;
24715;SDS011;12822;50.124;8.678;2022-12-18T08:43:25;49.97;;;20.05;;
24715;SDS011;12822;50.124;8.678;2022-12-18T08:46:11;48.53;;;20.92;;
24715;SDS011;12822;50.124;8.678;2022-12-18T08:48:37;53.28;;;22.73;;
24715;SDS011;12822;50.124;8.678;2022-12-18T08:51:03;45.15;;;21.02;;
24715;SDS011;12822;50.124;8.678;2022-12-18T08:53:29;50.28;;;23.98;;
24715;SDS011;12822;50.124;8.678;2022-12-18T08:55:56;59.58;;;24.70;;
24715;SDS011;12822;50.124;8.678;2022-12-18T08:58:22;55.75;;;23.35;;
24715;SDS011;12822;50.124;8.678;2022-12-18T09:00:48;54.38;;;24.92;;
24715;SDS011;12822;50.124;8.678;2022-12-18T09:03:15;62.35;;;25.73;;
24715;SDS011;12822;50.124;8.678;2022-12-18T09:05:41;56.80;;;25.40;;
24715;SDS011;12822;50.124;8.678;2022-12-18T09:08:09;64.82;;;25.92;;
24715;SDS011;12822;50.124;8.678;2022-12-18T09:10:41;62.47;;;26.75;;
24715;SDS011;12822;50.124;8.678;2022-12-18T09:13:07;57.65;;;24.55;;
24715;SDS011;12822;50.124;8.678;2022-12-18T09:15:33;55.85;;;24.88;;
24715;SDS011;12822;50.124;8.678;2022-12-18T09:17:59;60.42;;;26.42;;
24715;SDS011;12822;50.124;8.678;2022-12-18T09:20:25;57.05;;;26.20;;
24715;SDS011;12822;50.124;8.678;2022-12-18T09:22:53;59.60;;;26.80;;
24715;SDS011;12822;50.124;8.678;2022-12-18T09:25:19;65.07;;;26.38;;
24715;SDS011;12822;50.124;8.678;2022-12-18T09:27:46;58.00;;;26.55;;
24715;SDS011;12822;50.124;8.678;2022-12-18T09:30:13;62.83;;;26.52;;
24715;SDS011;12822;50.124;8.678;2022-12-18T09:32:39;68.60;;;27.30;;
24715;SDS011;12822;50.124;8.678;2022-12-18T09:35:07;61.35;;;25.65;;
24715;SDS011;12822;50.124;8.678;2022-12-18T09:37:33;65.65;;;27.13;;
24715;SDS011;12822;50.124;8.678;2022-12-18T09:39:59;68.45;;;28.73;;
24715;SDS011;12822;50.124;8.678;2022-12-18T09:42:25;62.88;;;27.55;;
24715;SDS011;12822;50.124;8.678;2022-12-18T09:44:54;63.40;;;27.25;;
24715;SDS011;12822;50.124;8.678;2022-12-18T09:49:55;65.63;;;28.77;;
24715;SDS011;12822;50.124;8.678;2022-12-18T09:52:41;70.40;;;30.20;;
24715;SDS011;12822;50.124;8.678;2022-12-18T09:55:11;70.63;;;29.00;;
24715;SDS011;12822;50.124;8.678;2022-12-18T09:57:42;71.18;;;28.88;;
24715;SDS011;12822;50.124;8.678;2022-12-18T10:00:20;63.17;;;29.05;;
24715;SDS011;12822;50.124;8.678;2022-12-18T10:02:46;68.53;;;28.27;;
24715;SDS011;12822;50.124;8.678;2022-12-18T10:05:13;69.45;;;30.02;;
24715;SDS011;12822;50.124;8.678;2022-12-18T10:12:46;75.07;;;29.55;;
24715;SDS011;12822;50.124;8.678;2022-12-18T10:15:27;68.78;;;27.77;;
24715;SDS011;12822;50.124;8.678;2022-12-18T10:18:05;69.32;;;30.45;;
24715;SDS011;12822;50.124;8.678;2022-12-18T10:20:38;71.63;;;29.58;;
24715;SDS011;12822;50.124;8.678;2022-12-18T10:28:10;72.50;;;30.27;;
24715;SDS011;12822;50.124;8.678;2022-12-18T10:30:36;65.82;;;29.20;;
24715;SDS011;12822;50.124;8.678;2022-12-18T10:33:04;72.78;;;30.58;;
24715;SDS011;12822;50.124;8.678;2022-12-18T10:35:30;73.00;;;30.15;;
24715;SDS011;12822;50.124;8.678;2022-12-18T10:38:00;73.32;;;29.38;;
24715;SDS011;12822;50.124;8.678;2022-12-18T10:40:26;65.45;;;28.25;;
24715;SDS011;12822;50.124;8.678;2022-12-18T10:43:09;72.53;;;30.38;;
24715;SDS011;12822;50.124;8.678;2022-12-18T10:45:36;82.75;;;31.17;;
24715;SDS011;12822;50.124;8.678;2022-12-18T10:48:02;65.63;;;29.02;;
24715;SDS011;12822;50.124;8.678;2022-12-18T10:50:30;78.82;;;30.65;;
24715;SDS011;12822;50.124;8.678;2022-12-18T10:52:58;80.28;;;29.30;;
24715;SDS011;12822;50.124;8.678;2022-12-18T10:55:27;80.13;;;30.65;;
24715;SDS011;12822;50.124;8.678;2022-12-18T10:57:53;73.85;;;29.67;;
24715;SDS011;12822;50.124;8.678;2022-12-18T11:00:27;73.97;;;29.75;;
24715;SDS011;12822;50.124;8.678;2022-12-18T11:02:53;77.13;;;29.27;;
24715;SDS011;12822;50.124;8.678;2022-12-18T11:07:50;66.88;;;24.90;;
24715;SDS011;12822;50.124;8.678;2022-12-18T11:10:17;75.35;;;30.63;;
24715;SDS011;12822;50.124;8.678;2022-12-18T11:12:43;79.15;;;28.90;;
24715;SDS011;12822;50.124;8.678;2022-12-18T11:15:20;79.00;;;30.02;;
24715;SDS011;12822;50.124;8.678;2022-12-18T11:17:50;76.70;;;29.58;;
24715;SDS011;12822;50.124;8.678;2022-12-18T11:20:21;82.53;;;31.27;;
24715;SDS011;12822;50.124;8.678;2022-12-18T11:25:25;80.55;;;29.90;;
24715;SDS011;12822;50.124;8.678;2022-12-18T11:27:52;79.60;;;30.42;;
24715;SDS011;12822;50.124;8.678;2022-12-18T11:32:46;61.28;;;21.90;;
24715;SDS011;12822;50.124;8.678;2022-12-18T11:35:47;76.10;;;29.15;;
24715;SDS011;12822;50.124;8.678;2022-12-18T11:38:21;74.53;;;29.13;;
24715;SDS011;12822;50.124;8.678;2022-12-18T11:43:38;81.47;;;30.60;;
24715;SDS011;12822;50.124;8.678;2022-12-18T11:46:11;84.32;;;30.38;;
24715;SDS011;12822;50.124;8.678;2022-12-18T11:48:41;80.43;;;29.95;;
24715;SDS011;12822;50.124;8.678;2022-12-18T11:51:18;77.97;;;31.17;;
24715;SDS011;12822;50.124;8.678;2022-12-18T11:53:46;87.63;;;31.73;;
24715;SDS011;12822;50.124;8.678;2022-12-18T12:01:16;81.65;;;31.15;;
24715;SDS011;12822;50.124;8.678;2022-12-18T12:03:47;95.53;;;33.13;;
24715;SDS011;12822;50.124;8.678;2022-12-18T12:06:19;85.78;;;32.03;;
24715;SDS011;12822;50.124;8.678;2022-12-18T12:16:31;77.13;;;27.73;;
24715;SDS011;12822;50.124;8.678;2022-12-18T12:21:46;78.70;;;27.80;;
24715;SDS011;12822;50.124;8.678;2022-12-18T12:26:46;84.75;;;30.67;;
24715;SDS011;12822;50.124;8.678;2022-12-18T12:29:19;80.28;;;32.28;;
24715;SDS011;12822;50.124;8.678;2022-12-18T12:31:55;80.65;;;30.67;;
24715;SDS011;12822;50.124;8.678;2022-12-18T12:34:27;80.30;;;31.08;;
24715;SDS011;12822;50.124;8.678;2022-12-18T12:39:26;80.47;;;30.60;;
24715;SDS011;12822;50.124;8.678;2022-12-18T12:41:54;73.32;;;29.73;;
24715;SDS011;12822;50.124;8.678;2022-12-18T12:44:43;80.82;;;29.60;;
24715;SDS011;12822;50.124;8.678;2022-12-18T12:49:36;73.82;;;28.90;;
24715;SDS011;12822;50.124;8.678;2022-12-18T12:52:45;85.93;;;32.95;;
24715;SDS011;12822;50.124;8.678;2022-12-18T12:54:52;92.90;;;33.13;;
24715;SDS011;12822;50.124;8.678;2022-12-18T12:57:23;86.45;;;31.27;;
24715;SDS011;12822;50.124;8.678;2022-12-18T13:03:30;79.45;;;31.92;;
24715;SDS011;12822;50.124;8.678;2022-12-18T13:07:58;83.22;;;31.75;;
24715;SDS011;12822;50.124;8.678;2022-12-18T13:10:30;78.80;;;29.23;;
24715;SDS011;12822;50.124;8.678;2022-12-18T13:12:58;79.20;;;31.65;;
24715;SDS011;12822;50.124;8.678;2022-12-18T13:18:04;80.85;;;31.38;;
24715;SDS011;12822;50.124;8.678;2022-12-18T13:20:38;85.47;;;33.20;;
24715;SDS011;12822;50.124;8.678;2022-12-18T13:25:50;83.43;;;32.55;;
24715;SDS011;12822;50.124;8.678;2022-12-18T13:30:46;77.28;;;29.13;;
24715;SDS011;12822;50.124;8.678;2022-12-18T13:45:44;83.18;;;30.73;;
24715;SDS011;12822;50.124;8.678;2022-12-18T13:48:21;72.97;;;29.73;;
24715;SDS011;12822;50.124;8.678;2022-12-18T13:53:28;78.57;;;30.50;;
24715;SDS011;12822;50.124;8.678;2022-12-18T13:55:55;77.15;;;30.65;;
24715;SDS011;12822;50.124;8.678;2022-12-18T13:58:21;77.75;;;29.73;;
24715;SDS011;12822;50.124;8.678;2022-12-18T14:00:47;78.93;;;30.85;;
24715;SDS011;12822;50.124;8.678;2022-12-18T14:03:23;79.57;;;29.30;;
24715;SDS011;12822;50.124;8.678;2022-12-18T14:06:05;74.45;;;30.38;;
24715;SDS011;12822;50.124;8.678;2022-12-18T14:08:33;82.75;;;30.67;;
24715;SDS011;12822;50.124;8.678;2022-12-18T14:11:01;74.03;;;28.98;;
24715;SDS011;12822;50.124;8.678;2022-12-18T14:13:31;73.40;;;29.20;;
24715;SDS011;12822;50.124;8.678;2022-12-18T14:16:00;80.93;;;30.25;;
24715;SDS011;12822;50.124;8.678;2022-12-18T14:18:29;82.93;;;30.67;;
24715;SDS011;12822;50.124;8.678;2022-12-18T14:20:58;77.82;;;31.00;;
24715;SDS011;12822;50.124;8.678;2022-12-18T14:23:40;84.63;;;30.40;;
24715;SDS011;12822;50.124;8.678;2022-12-18T14:26:26;77.70;;;29.83;;
24715;SDS011;12822;50.124;8.678;2022-12-18T14:28:57;77.55;;;28.52;;
24715;SDS011;12822;50.124;8.678;2022-12-18T14:31:26;73.38;;;28.70;;
24715;SDS011;12822;50.124;8.678;2022-12-18T14:33:53;78.20;;;30.17;;
24715;SDS011;12822;50.124;8.678;2022-12-18T14:36:23;79.55;;;30.38;;
24715;SDS011;12822;50.124;8.678;2022-12-18T14:38:53;73.50;;;29.50;;
24715;SDS011;12822;50.124;8.678;2022-12-18T14:41:20;75.55;;;28.80;;
24715;SDS011;12822;50.124;8.678;2022-12-18T14:43:47;80.95;;;29.77;;
24715;SDS011;12822;50.124;8.678;2022-12-18T14:46:30;77.05;;;29.48;;
24715;SDS011;12822;50.124;8.678;2022-12-18T14:49:02;78.25;;;30.75;;
24715;SDS011;12822;50.124;8.678;2022-12-18T14:51:30;78.53;;;29.50;;
24715;SDS011;12822;50.124;8.678;2022-12-18T14:54:01;77.00;;;30.88;;
24715;SDS011;12822;50.124;8.678;2022-12-18T14:56:34;70.85;;;28.77;;
24715;SDS011;12822;50.124;8.678;2022-12-18T14:59:02;81.88;;;31.98;;
24715;SDS011;12822;50.124;8.678;2022-12-18T15:07:01;80.90;;;29.10;;
24715;SDS011;12822;50.124;8.678;2022-12-18T15:09:28;77.93;;;29.13;;
24715;SDS011;12822;50.124;8.678;2022-12-18T15:11:57;81.32;;;31.08;;
24715;SDS011;12822;50.124;8.678;2022-12-18T15:14:30;78.03;;;30.40;;
24715;SDS011;12822;50.124;8.678;2022-12-18T15:16:57;77.00;;;31.80;;
24715;SDS011;12822;50.124;8.678;2022-12-18T15:19:26;80.03;;;31.27;;
24715;SDS011;12822;50.124;8.678;2022-12-18T15:21:57;82.68;;;31.15;;
24715;SDS011;12822;50.124;8.678;2022-12-18T15:24:24;84.40;;;31.75;;
24715;SDS011;12822;50.124;8.678;2022-12-18T15:26:52;91.95;;;31.73;;
24715;SDS011;12822;50.124;8.678;2022-12-18T15:29:19;84.90;;;31.45;;
24715;SDS011;12822;50.124;8.678;2022-12-18T15:31:57;85.00;;;33.50;;
24715;SDS011;12822;50.124;8.678;2022-12-18T15:34:23;86.05;;;32.90;;
24715;SDS011;12822;50.124;8.678;2022-12-18T15:36:51;79.72;;;32.30;;
24715;SDS011;12822;50.124;8.678;2022-12-18T15:39:17;86.68;;;33.83;;
24715;SDS011;12822;50.124;8.678;2022-12-18T15:41:43;87.60;;;32.67;;
24715;SDS011;12822;50.124;8.678;2022-12-18T15:44:29;85.85;;;32.30;;
24715;SDS011;12822;50.124;8.678;2022-12-18T15:46:55;82.15;;;32.33;;
24715;SDS011;12822;50.124;8.678;2022-12-18T15:49:21;86.95;;;32.63;;
24715;SDS011;12822;50.124;8.678;2022-12-18T15:51:49;81.95;;;32.05;;
24715;SDS011;12822;50.124;8.678;2022-12-18T15:54:17;88.50;;;33.90;;
24715;SDS011;12822;50.124;8.678;2022-12-18T15:57:03;96.47;;;36.20;;
24715;SDS011;12822;50.124;8.678;2022-12-18T15:59:47;90.40;;;34.55;;
24715;SDS011;12822;50.124;8.678;2022-12-18T16:02:14;81.72;;;33.38;;
24715;SDS011;12822;50.124;8.678;2022-12-18T16:04:41;90.00;;;34.33;;
24715;SDS011;12822;50.124;8.678;2022-12-18T16:07:08;85.75;;;34.50;;